الصفحة الرئيسية
METAR-TAF:

METAR-TAF

مطار :

مطار سينتاني

جايابورا, إندونيسيا

دائرة عرض: 02-34-37S, خط طول: 140-30-58E, ارتفاع: 88 متر

مراقبة الطقس الحالي

تاريخ ووقت الإصدار 26 دقيقة قبل الساعة 15:00UTC
ريح 2 عقدة من الشرق
درجة الحرارة 26°درجة مئوية
الرطوبة 89%
ضغط 1009 hPa
الرؤية: 8000 متر
غيوم مفككة على ارتفاع 1100 قدم
مطر

METAR: WAJJ 111500Z 08002KT 8000 RA BKN011 26/24 Q1009 NOSIG

زمن: 22:26 (15:26 UTC)


TAF: مفقودة

أرصاد الطقس والتوقعات من أكثر من 4000 مطار (تقارير الطقس للمطار METAR والتنبؤ بالطقس بالمطارTAF).

المحطات المتاحة هي النقط الصفراء والحمراء على الخريطة.

حرك المؤشر فوق النقطة لمعرفة اسم المحطة.

ثم انقر لمعرفة أرصاد وتوقعات الطقس.

لتغيير الخارطة: اضغط على الأزرار الخضراء مع رمز الصليب الأسود للتكبير. على الزر الأخضر مع شرطة للتصغير، أو على الأسهم الخضراء للخرائط المجاورة.


METAR-TAF: